Time;durP1;ratioP1;P1;durP2;ratioP2;P2;SDS_P1;SDS_P2;PMS_P1;PMS_P2;Temp;Humidity;BMP_temperature;BMP_pressure;BME280_temperature;BME280_humidity;BME280_pressure;Samples;Min_cycle;Max_cycle;Signal;HPM_P1;HPM_P2
2023/12/07 00:01:37;;;;;;;54.93;21.50;;;5.80;99.90;;;;;;7279978;19;20211;-77
2023/12/07 00:04:03;;;;;;;53.07;22.07;;;5.90;99.90;;;;;;7303482;19;20199;-77
2023/12/07 00:06:29;;;;;;;54.70;22.33;;;6.10;99.90;;;;;;7280686;19;20216;-78
2023/12/07 00:08:55;;;;;;;52.70;21.97;;;6.10;99.90;;;;;;7281579;19;20212;-78
2023/12/07 00:11:24;;;;;;;47.80;20.93;;;6.10;99.90;;;;;;7279982;19;20197;-76
2023/12/07 00:13:50;;;;;;;49.47;22.20;;;6.00;99.90;;;;;;7280119;19;20192;-77
2023/12/07 00:16:16;;;;;;;53.07;23.03;;;5.70;99.90;;;;;;7281585;19;20219;-77
2023/12/07 00:18:41;;;;;;;45.03;21.10;;;5.80;99.90;;;;;;7278984;19;20188;-77
2023/12/07 00:21:11;;;;;;;46.73;21.30;;;5.80;99.90;;;;;;7280632;19;20221;-77
2023/12/07 00:23:37;;;;;;;46.53;21.53;;;5.90;99.90;;;;;;7284432;19;20217;-78
2023/12/07 00:26:04;;;;;;;45.87;22.30;;;6.00;99.90;;;;;;7301282;19;20686;-77
2023/12/07 00:28:30;;;;;;;48.20;22.13;;;6.10;99.90;;;;;;7279573;19;20181;-77
2023/12/07 00:30:56;;;;;;;47.03;21.17;;;6.10;99.90;;;;;;7280684;19;20203;-76
2023/12/07 00:33:22;;;;;;;46.73;20.43;;;6.10;99.90;;;;;;7280644;19;20670;-76
2023/12/07 00:35:48;;;;;;;52.83;22.07;;;5.70;99.90;;;;;;7282301;19;20184;-76
2023/12/07 00:38:14;;;;;;;50.63;22.87;;;5.70;99.90;;;;;;7279889;19;20199;-77
2023/12/07 00:40:40;;;;;;;48.77;20.50;;;5.70;99.90;;;;;;7280164;19;20284;-77
2023/12/07 00:43:07;;;;;;;53.43;22.50;;;5.80;99.90;;;;;;7295596;19;20197;-77
2023/12/07 00:45:32;;;;;;;54.27;22.77;;;5.80;99.90;;;;;;7301043;19;20192;-77
2023/12/07 00:47:58;;;;;;;48.50;22.37;;;5.80;99.90;;;;;;7282062;19;20206;-77
2023/12/07 00:50:24;;;;;;;54.73;22.17;;;5.70;99.90;;;;;;7278251;19;20189;-78
2023/12/07 00:52:50;;;;;;;54.10;23.13;;;5.80;99.90;;;;;;7281419;19;20221;-78
2023/12/07 00:55:15;;;;;;;54.27;23.53;;;5.50;99.90;;;;;;7280161;19;20222;-77
2023/12/07 00:57:41;;;;;;;45.20;21.57;;;5.10;99.90;;;;;;7279064;19;20198;-75
2023/12/07 01:00:08;;;;;;;51.30;22.20;;;5.00;99.90;;;;;;7281666;19;20204;-76
2023/12/07 01:02:34;;;;;;;48.40;21.87;;;5.00;99.90;;;;;;7300730;19;20192;-76
2023/12/07 01:05:00;;;;;;;48.67;21.57;;;5.10;99.90;;;;;;7279472;19;20196;-77
2023/12/07 01:07:26;;;;;;;48.33;22.13;;;5.20;99.90;;;;;;7280996;19;20216;-78
2023/12/07 01:09:52;;;;;;;47.40;21.97;;;5.40;99.90;;;;;;7278890;19;20647;-77
2023/12/07 01:12:17;;;;;;;47.30;21.20;;;5.60;99.90;;;;;;7278424;19;20193;-77
2023/12/07 01:14:43;;;;;;;49.37;21.50;;;5.70;99.90;;;;;;7277228;19;20202;-77
2023/12/07 01:17:09;;;;;;;42.87;20.13;;;5.70;99.90;;;;;;7277787;19;20179;-77
2023/12/07 01:19:35;;;;;;;47.43;20.60;;;5.60;99.90;;;;;;7300886;19;20214;-77
2023/12/07 01:22:01;;;;;;;43.00;19.27;;;5.50;99.90;;;;;;7278903;19;20210;-77
2023/12/07 01:24:27;;;;;;;41.57;19.13;;;5.40;99.90;;;;;;7277357;19;20180;-77
2023/12/07 01:26:52;;;;;;;39.80;18.30;;;5.20;99.90;;;;;;7277723;19;20275;-77
2023/12/07 01:29:18;;;;;;;40.30;17.40;;;4.90;99.90;;;;;;7279545;19;20202;-77
2023/12/07 01:31:44;;;;;;;38.77;17.30;;;4.70;99.90;;;;;;7285116;19;20701;-77
2023/12/07 01:34:10;;;;;;;38.60;17.80;;;4.80;99.90;;;;;;7286388;19;20257;-77
2023/12/07 01:36:36;;;;;;;39.87;17.40;;;4.90;99.90;;;;;;7299984;19;20188;-77
2023/12/07 01:39:02;;;;;;;36.90;16.50;;;5.00;99.90;;;;;;7299807;19;20187;-77
2023/12/07 01:41:28;;;;;;;39.40;17.70;;;5.00;99.90;;;;;;7285011;19;20562;-77
2023/12/07 01:43:54;;;;;;;43.10;17.80;;;5.00;99.90;;;;;;7286345;19;20214;-77
2023/12/07 01:46:20;;;;;;;40.53;17.27;;;4.80;99.90;;;;;;7286381;19;20550;-77
2023/12/07 01:48:49;;;;;;;37.97;17.67;;;4.70;99.90;;;;;;7283682;19;20185;-76
2023/12/07 01:51:18;;;;;;;43.77;18.83;;;4.70;99.90;;;;;;7283908;19;20198;-76
2023/12/07 01:53:44;;;;;;;46.83;19.17;;;4.90;99.90;;;;;;7285154;19;20186;-77
2023/12/07 01:56:12;;;;;;;38.63;16.90;;;5.00;99.90;;;;;;7285750;19;20562;-77
2023/12/07 01:58:38;;;;;;;37.90;17.10;;;5.10;99.90;;;;;;7285438;19;20764;-76
2023/12/07 02:01:04;;;;;;;37.80;16.70;;;5.10;99.90;;;;;;7305064;19;20264;-77
2023/12/07 02:03:31;;;;;;;35.33;16.50;;;5.10;99.90;;;;;;7285984;19;20185;-76
2023/12/07 02:05:58;;;;;;;40.13;17.03;;;5.20;99.90;;;;;;7284764;19;20182;-76
2023/12/07 02:08:25;;;;;;;38.50;17.23;;;5.20;99.90;;;;;;7282619;19;20200;-81
2023/12/07 02:10:52;;;;;;;38.00;15.77;;;5.20;99.90;;;;;;7284488;19;20229;-76
2023/12/07 02:13:20;;;;;;;38.23;16.30;;;5.30;99.90;;;;;;7283988;19;20195;-76
2023/12/07 02:15:46;;;;;;;39.67;16.87;;;5.30;99.90;;;;;;7283840;19;20640;-75
2023/12/07 02:18:35;;;;;;;38.93;16.83;;;5.40;99.90;;;;;;7283599;19;20286;-76
2023/12/07 02:21:11;;;;;;;36.37;16.13;;;5.50;99.90;;;;;;7284490;19;20224;-77
2023/12/07 02:23:39;;;;;;;35.07;16.53;;;5.50;99.90;;;;;;7266255;19;20844;-76
2023/12/07 02:26:08;;;;;;;37.70;15.77;;;5.60;99.90;;;;;;7306264;19;20740;-76
2023/12/07 02:28:34;;;;;;;37.60;16.07;;;5.70;99.90;;;;;;7283839;19;20185;-77
2023/12/07 02:31:00;;;;;;;37.87;16.30;;;5.60;99.90;;;;;;7282686;19;20699;-78
2023/12/07 02:33:25;;;;;;;33.30;14.97;;;5.50;99.90;;;;;;7284557;19;20193;-76
2023/12/07 02:35:51;;;;;;;34.10;15.57;;;5.40;99.90;;;;;;7283496;19;20603;-77
2023/12/07 02:38:18;;;;;;;31.33;15.37;;;5.40;99.90;;;;;;7283849;19;20271;-77
2023/12/07 02:40:45;;;;;;;32.40;15.53;;;5.40;99.90;;;;;;7284485;19;20199;-77
2023/12/07 02:43:11;;;;;;;33.00;14.77;;;5.40;99.90;;;;;;7284425;19;20208;-77
2023/12/07 02:45:38;;;;;;;29.70;15.07;;;5.40;99.90;;;;;;7285028;19;20181;-77
2023/12/07 02:48:04;;;;;;;35.57;15.10;;;5.50;99.90;;;;;;7304009;19;20190;-77
2023/12/07 02:50:30;;;;;;;31.33;15.33;;;5.50;99.90;;;;;;7284711;19;20249;-77
2023/12/07 02:52:56;;;;;;;35.53;15.20;;;5.60;99.90;;;;;;7283989;19;20210;-77
2023/12/07 02:55:22;;;;;;;32.90;15.37;;;5.40;99.90;;;;;;7284444;19;20192;-75
2023/12/07 02:57:49;;;;;;;32.43;15.30;;;5.50;99.90;;;;;;7283977;19;20200;-76
2023/12/07 03:00:15;;;;;;;31.60;14.83;;;5.50;99.90;;;;;;7283010;19;20184;-76
2023/12/07 03:02:41;;;;;;;29.90;15.50;;;5.50;99.90;;;;;;7282947;19;20655;-76
2023/12/07 03:05:08;;;;;;;29.87;15.50;;;5.40;99.90;;;;;;7289573;19;20221;-76
2023/12/07 03:07:34;;;;;;;31.77;16.03;;;5.30;99.90;;;;;;7306633;19;20197;-77
2023/12/07 03:10:00;;;;;;;29.80;14.97;;;5.40;99.90;;;;;;7285192;19;20186;-77
2023/12/07 03:12:26;;;;;;;29.10;15.10;;;5.50;99.90;;;;;;7282099;19;20199;-76
2023/12/07 03:14:52;;;;;;;32.27;15.47;;;5.50;99.90;;;;;;7281680;19;20204;-75
2023/12/07 03:17:18;;;;;;;35.37;16.83;;;5.50;99.90;;;;;;7279812;19;20211;-77
2023/12/07 03:19:44;;;;;;;32.13;15.13;;;5.30;99.90;;;;;;7283397;19;20190;-76
2023/12/07 03:22:10;;;;;;;34.17;15.43;;;5.40;99.90;;;;;;7283641;19;20850;-77
2023/12/07 03:24:36;;;;;;;36.80;16.90;;;5.40;99.90;;;;;;7306710;19;20268;-77
2023/12/07 03:27:02;;;;;;;33.60;15.63;;;5.40;99.90;;;;;;7287718;19;20202;-77
2023/12/07 03:29:28;;;;;;;30.87;15.73;;;5.60;99.90;;;;;;7285868;19;20226;-78
2023/12/07 03:31:54;;;;;;;34.43;15.50;;;5.70;99.90;;;;;;7282919;19;20201;-77
2023/12/07 03:34:20;;;;;;;32.13;15.80;;;5.50;99.90;;;;;;7283541;19;20206;-78
2023/12/07 03:36:47;;;;;;;28.83;15.27;;;5.40;99.90;;;;;;7283506;19;20199;-78
2023/12/07 03:39:18;;;;;;;29.43;14.80;;;5.50;99.90;;;;;;7281714;19;20636;-77
2023/12/07 03:41:44;;;;;;;27.30;14.50;;;5.40;99.90;;;;;;7282622;19;20193;-77
2023/12/07 03:44:10;;;;;;;33.93;15.17;;;5.40;99.90;;;;;;7281754;19;20205;-77
2023/12/07 03:46:36;;;;;;;28.30;14.10;;;5.40;99.90;;;;;;7303306;19;20187;-77
2023/12/07 03:49:02;;;;;;;29.73;14.87;;;5.20;99.90;;;;;;7293373;19;20552;-77
2023/12/07 03:51:28;;;;;;;33.37;15.73;;;5.20;99.90;;;;;;7281227;19;20184;-77
2023/12/07 03:53:55;;;;;;;33.03;15.90;;;5.20;99.90;;;;;;7281580;19;20187;-77
2023/12/07 03:56:25;;;;;;;29.17;15.87;;;5.30;99.90;;;;;;7281874;19;20181;-77
2023/12/07 03:58:51;;;;;;;34.77;16.73;;;5.30;99.90;;;;;;7282084;19;20592;-77
2023/12/07 04:01:17;;;;;;;30.97;15.93;;;5.30;99.90;;;;;;7281234;19;20195;-76
2023/12/07 04:03:43;;;;;;;33.03;16.50;;;5.40;99.90;;;;;;7282367;19;20185;-77
2023/12/07 04:06:09;;;;;;;31.73;16.60;;;5.40;99.90;;;;;;7281628;19;20226;-77
2023/12/07 04:08:35;;;;;;;36.93;16.77;;;5.40;99.90;;;;;;7304402;19;20241;-77
2023/12/07 04:11:00;;;;;;;30.80;15.97;;;5.40;99.90;;;;;;7281572;19;20535;-76
2023/12/07 04:13:26;;;;;;;30.23;15.83;;;5.40;99.90;;;;;;7281937;19;20194;-76
2023/12/07 04:15:52;;;;;;;34.80;17.30;;;5.40;99.90;;;;;;7282739;19;20188;-77
2023/12/07 04:18:18;;;;;;;31.83;16.87;;;5.20;99.90;;;;;;7280526;19;20188;-76
2023/12/07 04:20:43;;;;;;;34.87;17.10;;;5.30;99.90;;;;;;7281258;19;20193;-77
2023/12/07 04:23:10;;;;;;;29.80;15.87;;;5.30;99.90;;;;;;7280756;19;20209;-76
2023/12/07 04:25:36;;;;;;;34.77;15.80;;;5.30;99.90;;;;;;7299192;19;20271;-77
2023/12/07 04:28:02;;;;;;;35.90;16.83;;;5.10;99.90;;;;;;7292323;19;20969;-77
2023/12/07 04:30:27;;;;;;;33.30;16.70;;;5.00;99.90;;;;;;7279815;19;20200;-77
2023/12/07 04:32:53;;;;;;;31.17;15.70;;;4.80;99.90;;;;;;7279984;19;20195;-77
2023/12/07 04:35:19;;;;;;;39.07;17.27;;;4.70;99.90;;;;;;7279244;19;20256;-76
2023/12/07 04:37:45;;;;;;;33.23;16.60;;;4.60;99.90;;;;;;7279342;19;20196;-77
2023/12/07 04:40:11;;;;;;;33.07;16.97;;;4.60;99.90;;;;;;7279805;19;20278;-77
2023/12/07 04:42:37;;;;;;;30.63;15.60;;;4.80;99.90;;;;;;7290114;19;20201;-76
2023/12/07 04:45:03;;;;;;;34.70;17.37;;;4.70;99.90;;;;;;7302227;19;20625;-77
2023/12/07 04:47:29;;;;;;;33.73;17.70;;;4.70;99.90;;;;;;7280143;19;20186;-77
2023/12/07 04:49:55;;;;;;;32.00;16.47;;;4.70;99.90;;;;;;7280346;19;20569;-77
2023/12/07 04:52:21;;;;;;;35.13;16.43;;;4.60;99.90;;;;;;7281745;19;20196;-77
2023/12/07 04:54:46;;;;;;;30.37;15.93;;;4.70;99.90;;;;;;7281055;19;20703;-76
2023/12/07 04:57:12;;;;;;;32.83;16.50;;;4.60;99.90;;;;;;7279151;19;20285;-77
2023/12/07 04:59:38;;;;;;;31.33;15.97;;;4.70;99.90;;;;;;7278820;19;20191;-76
2023/12/07 05:02:04;;;;;;;34.67;16.90;;;4.70;99.90;;;;;;7302486;19;20197;-76
2023/12/07 05:04:29;;;;;;;32.17;16.40;;;4.80;99.90;;;;;;7279669;19;20203;-76
2023/12/07 05:06:55;;;;;;;33.37;16.90;;;4.80;99.90;;;;;;7284816;19;22311;-77
2023/12/07 05:09:21;;;;;;;34.43;17.00;;;4.90;99.90;;;;;;7287717;19;20187;-76
2023/12/07 05:11:47;;;;;;;29.53;17.27;;;4.90;99.90;;;;;;7286193;19;20199;-76
2023/12/07 05:14:13;;;;;;;36.10;17.30;;;4.80;99.90;;;;;;7286734;19;20195;-76
2023/12/07 05:16:39;;;;;;;32.83;16.33;;;4.80;99.90;;;;;;7287122;19;20216;-76
2023/12/07 05:19:05;;;;;;;32.13;17.30;;;4.70;99.90;;;;;;7309034;19;20183;-76
2023/12/07 05:21:31;;;;;;;35.47;18.90;;;4.60;99.90;;;;;;7286239;19;20186;-76
2023/12/07 05:23:56;;;;;;;32.10;16.53;;;4.60;99.90;;;;;;7286188;19;20556;-77
2023/12/07 05:26:22;;;;;;;35.37;17.03;;;4.50;99.90;;;;;;7286709;19;20275;-78
2023/12/07 05:28:48;;;;;;;34.67;16.13;;;4.60;99.90;;;;;;7286726;19;20213;-76
2023/12/07 05:31:17;;;;;;;32.63;17.07;;;4.60;99.90;;;;;;7287123;19;20187;-76
2023/12/07 05:33:43;;;;;;;32.40;16.47;;;4.50;99.90;;;;;;7286549;19;20194;-76
2023/12/07 05:36:09;;;;;;;31.63;16.20;;;4.50;99.90;;;;;;7284770;19;20202;-76
2023/12/07 05:38:35;;;;;;;35.10;16.73;;;4.50;99.90;;;;;;7308120;19;20559;-77
2023/12/07 05:41:01;;;;;;;31.03;15.37;;;4.70;99.90;;;;;;7287235;19;20202;-77
2023/12/07 05:43:26;;;;;;;34.80;17.30;;;4.80;99.90;;;;;;7288247;19;20206;-77
2023/12/07 05:45:52;;;;;;;30.70;16.40;;;4.80;99.90;;;;;;7284624;19;20724;-78
2023/12/07 05:48:18;;;;;;;30.20;16.10;;;4.80;99.90;;;;;;7287218;19;20193;-77
2023/12/07 05:50:44;;;;;;;31.77;16.57;;;4.80;99.90;;;;;;7284310;19;20646;-76
2023/12/07 05:53:10;;;;;;;38.70;17.13;;;4.70;99.90;;;;;;7287194;19;20194;-76
2023/12/07 05:55:37;;;;;;;32.63;16.70;;;4.60;99.90;;;;;;7307097;19;20217;-77
2023/12/07 05:58:03;;;;;;;31.20;17.00;;;4.50;99.90;;;;;;7284339;19;20179;-77
2023/12/07 06:00:29;;;;;;;36.47;17.97;;;4.40;99.90;;;;;;7285147;19;20221;-77
2023/12/07 06:02:55;;;;;;;36.87;16.97;;;4.40;99.90;;;;;;7287035;19;20513;-76
2023/12/07 06:05:21;;;;;;;35.07;16.83;;;4.40;99.90;;;;;;7285950;19;20690;-76
2023/12/07 06:07:46;;;;;;;33.63;17.20;;;4.40;99.90;;;;;;7285568;19;20630;-79
2023/12/07 06:10:12;;;;;;;35.17;16.57;;;4.30;99.90;;;;;;7287226;19;20192;-78
2023/12/07 06:12:38;;;;;;;34.80;16.67;;;4.30;99.90;;;;;;7289738;19;20232;-77
2023/12/07 06:15:06;;;;;;;35.90;16.17;;;4.30;99.90;;;;;;7306924;19;20550;-78
2023/12/07 06:17:33;;;;;;;35.33;18.33;;;4.30;99.90;;;;;;7283364;19;20195;-78
2023/12/07 06:19:59;;;;;;;33.43;16.17;;;4.30;99.90;;;;;;7286444;19;20220;-79
2023/12/07 06:22:25;;;;;;;33.30;16.27;;;4.30;99.90;;;;;;7284150;19;20625;-78
2023/12/07 06:24:51;;;;;;;33.93;16.43;;;4.30;99.90;;;;;;7287292;19;20658;-78
2023/12/07 06:27:18;;;;;;;32.57;15.60;;;4.30;99.90;;;;;;7287944;19;20203;-77
2023/12/07 06:29:43;;;;;;;33.87;16.67;;;4.30;99.90;;;;;;7288341;19;20192;-77
2023/12/07 06:32:09;;;;;;;39.97;17.20;;;4.40;99.90;;;;;;7287904;19;20618;-78
2023/12/07 06:34:40;;;;;;;32.17;15.60;;;4.40;99.90;;;;;;7308658;19;20197;-78
2023/12/07 06:37:06;;;;;;;30.63;16.43;;;4.40;99.90;;;;;;7286323;19;20189;-78
2023/12/07 06:39:33;;;;;;;35.03;16.70;;;4.50;99.90;;;;;;7287018;19;20195;-77
2023/12/07 06:41:59;;;;;;;31.27;15.80;;;4.50;99.90;;;;;;7281267;19;20202;-78
2023/12/07 06:44:25;;;;;;;32.00;16.27;;;4.50;99.90;;;;;;7285826;19;20226;-77
2023/12/07 06:46:51;;;;;;;35.38;20.45;;;4.50;99.90;;;;;;7283822;19;20783;-77
2023/12/07 06:49:17;;;;;;;34.87;16.87;;;4.50;99.90;;;;;;7284171;19;20272;-78
2023/12/07 06:51:42;;;;;;;31.17;16.30;;;4.60;99.90;;;;;;7285341;19;20189;-77
2023/12/07 06:54:08;;;;;;;27.53;14.93;;;4.80;99.90;;;;;;7293062;19;20196;-78
2023/12/07 06:56:34;;;;;;;28.93;15.33;;;4.90;99.90;;;;;;7306187;19;20204;-78
2023/12/07 06:59:00;;;;;;;29.13;15.37;;;5.00;99.90;;;;;;7284909;19;20887;-78
2023/12/07 07:01:26;;;;;;;28.70;15.03;;;4.90;99.90;;;;;;7284430;19;20207;-78
2023/12/07 07:03:51;;;;;;;28.37;14.83;;;4.80;99.90;;;;;;7282761;19;20191;-78
2023/12/07 07:06:17;;;;;;;27.73;14.70;;;4.80;99.90;;;;;;7285857;19;20298;-77
2023/12/07 07:08:43;;;;;;;30.53;14.93;;;4.90;99.90;;;;;;7283887;19;20578;-78
2023/12/07 07:11:15;;;;;;;28.83;14.43;;;4.90;99.90;;;;;;7284847;19;20620;-77
2023/12/07 07:13:41;;;;;;;26.53;13.97;;;4.90;99.90;;;;;;7284977;19;20207;-78
2023/12/07 07:16:08;;;;;;;27.33;14.70;;;4.80;99.90;;;;;;7307983;19;20211;-78
2023/12/07 07:18:35;;;;;;;29.63;17.67;;;4.80;99.90;;;;;;7285513;19;20189;-77
2023/12/07 07:21:01;;;;;;;30.50;15.73;;;4.70;99.90;;;;;;7282523;19;20192;-78
2023/12/07 07:23:26;;;;;;;29.83;15.33;;;4.80;99.90;;;;;;7284109;19;20198;-78
2023/12/07 07:25:52;;;;;;;31.60;15.37;;;4.80;99.90;;;;;;7283730;19;20202;-78
2023/12/07 07:28:18;;;;;;;30.70;15.17;;;4.90;99.90;;;;;;7284568;19;20203;-78
2023/12/07 07:30:43;;;;;;;31.20;15.00;;;4.90;99.90;;;;;;7278834;19;20237;-78
2023/12/07 07:33:09;;;;;;;30.73;15.43;;;4.80;99.90;;;;;;7282462;19;20184;-78
2023/12/07 07:35:35;;;;;;;30.40;14.97;;;4.80;99.90;;;;;;7305002;19;20332;-78
2023/12/07 07:38:01;;;;;;;27.83;14.60;;;4.80;99.90;;;;;;7281960;19;20216;-78
2023/12/07 07:40:26;;;;;;;32.73;15.27;;;4.90;99.90;;;;;;7282123;19;20205;-78
2023/12/07 07:42:52;;;;;;;34.30;15.50;;;4.90;99.90;;;;;;7282603;19;20195;-79
2023/12/07 07:45:18;;;;;;;30.67;15.10;;;4.90;99.90;;;;;;7283591;19;20214;-79
2023/12/07 07:47:44;;;;;;;31.00;15.73;;;5.00;99.90;;;;;;7282529;19;20702;-78
2023/12/07 07:50:11;;;;;;;30.63;15.13;;;4.90;99.90;;;;;;7282793;19;20287;-78
2023/12/07 07:52:40;;;;;;;29.47;14.63;;;4.80;99.90;;;;;;7291579;19;20262;-78
2023/12/07 07:55:07;;;;;;;33.27;15.97;;;4.70;99.90;;;;;;7302734;19;20192;-77
2023/12/07 07:57:32;;;;;;;33.30;14.87;;;4.50;99.90;;;;;;7280597;19;20214;-78
2023/12/07 07:59:58;;;;;;;31.17;14.93;;;4.40;99.90;;;;;;7278903;19;20176;-78
2023/12/07 08:02:24;;;;;;;29.33;14.67;;;4.40;99.90;;;;;;7279285;19;20185;-78
2023/12/07 08:04:51;;;;;;;31.90;15.80;;;4.30;99.90;;;;;;7281017;19;20709;-78
2023/12/07 08:07:17;;;;;;;28.83;15.43;;;4.40;99.90;;;;;;7280843;19;20192;-79
2023/12/07 08:09:43;;;;;;;29.97;15.23;;;4.50;99.90;;;;;;7283153;19;20223;-78
2023/12/07 08:12:09;;;;;;;31.77;15.53;;;4.50;99.90;;;;;;7283168;19;20185;-79
2023/12/07 08:14:39;;;;;;;28.57;14.87;;;4.60;99.90;;;;;;7305293;19;20189;-79
2023/12/07 08:17:05;;;;;;;30.20;14.57;;;4.60;99.90;;;;;;7283361;19;20185;-79
2023/12/07 08:19:31;;;;;;;28.43;14.80;;;4.60;99.90;;;;;;7282833;19;20187;-79
2023/12/07 08:21:57;;;;;;;28.87;15.03;;;4.60;99.90;;;;;;7283082;19;20661;-78
2023/12/07 08:24:23;;;;;;;27.07;14.07;;;4.70;99.90;;;;;;7282892;19;20195;-79
2023/12/07 08:26:48;;;;;;;30.97;13.37;;;4.70;99.90;;;;;;7283514;19;20187;-79
2023/12/07 08:29:14;;;;;;;28.73;13.57;;;4.80;99.90;;;;;;7284050;19;20186;-78
2023/12/07 08:31:43;;;;;;;28.17;14.37;;;4.70;99.90;;;;;;7283339;19;20183;-78
2023/12/07 08:34:08;;;;;;;33.00;14.57;;;4.70;99.90;;;;;;7288160;19;20248;-78
2023/12/07 08:36:34;;;;;;;30.20;14.43;;;4.80;99.90;;;;;;7303280;19;20206;-79
2023/12/07 08:39:00;;;;;;;24.97;13.93;;;4.90;99.90;;;;;;7281158;19;20214;-79
2023/12/07 08:41:26;;;;;;;28.37;13.87;;;4.90;99.90;;;;;;7279479;19;20193;-80
2023/12/07 08:43:51;;;;;;;26.97;14.27;;;4.90;99.90;;;;;;7278957;19;20276;-79
2023/12/07 08:46:17;;;;;;;29.27;13.60;;;5.10;99.90;;;;;;7277726;19;20184;-79
2023/12/07 08:48:43;;;;;;;24.70;12.30;;;5.10;99.90;;;;;;7281446;19;20207;-78
2023/12/07 08:51:09;;;;;;;28.37;12.60;;;5.10;99.90;;;;;;7283038;19;20647;-78
2023/12/07 08:53:35;;;;;;;26.07;13.13;;;5.20;99.90;;;;;;7304695;19;20288;-78
2023/12/07 08:56:01;;;;;;;28.87;13.63;;;5.20;99.90;;;;;;7282110;19;20188;-78
2023/12/07 08:58:27;;;;;;;26.93;12.80;;;5.10;99.90;;;;;;7281812;19;20208;-80
2023/12/07 09:00:55;;;;;;;25.70;12.90;;;5.00;99.90;;;;;;7283658;19;20199;-79
2023/12/07 09:03:21;;;;;;;24.53;12.13;;;5.20;99.90;;;;;;7281844;19;20202;-80
2023/12/07 09:05:47;;;;;;;25.03;13.10;;;5.30;99.90;;;;;;7281511;19;20199;-79
2023/12/07 09:08:12;;;;;;;32.43;14.23;;;5.30;99.90;;;;;;7282160;19;20204;-80
2023/12/07 09:10:38;;;;;;;27.30;11.80;;;5.30;99.90;;;;;;7287575;19;20203;-79
2023/12/07 09:13:05;;;;;;;24.33;12.47;;;5.30;99.90;;;;;;7302264;19;20227;-79
2023/12/07 09:15:31;;;;;;;25.47;11.10;;;5.40;99.90;;;;;;7282776;19;20189;-78
2023/12/07 09:17:57;;;;;;;25.33;11.93;;;5.50;99.90;;;;;;7282428;19;20190;-79
2023/12/07 09:20:23;;;;;;;23.93;11.97;;;5.50;99.90;;;;;;7283096;19;20200;-79
2023/12/07 09:22:49;;;;;;;24.03;11.50;;;5.50;99.90;;;;;;7283287;19;20200;-78
2023/12/07 09:25:17;;;;;;;22.93;11.93;;;5.60;99.90;;;;;;7282007;19;20189;-78
2023/12/07 09:27:43;;;;;;;24.47;12.07;;;5.70;99.90;;;;;;7281279;19;20260;-78
2023/12/07 09:30:12;;;;;;;22.27;11.57;;;5.90;99.90;;;;;;7282529;19;20205;-78
2023/12/07 09:32:40;;;;;;;22.27;12.13;;;5.90;99.90;;;;;;7290482;19;20181;-78
2023/12/07 09:35:18;;;;;;;23.77;12.10;;;6.00;99.90;;;;;;7303843;19;20200;-78
2023/12/07 09:37:44;;;;;;;26.90;11.30;;;6.10;99.90;;;;;;7179040;19;2004603;-79
2023/12/07 09:40:21;;;;;;;22.93;11.43;;;6.20;99.90;;;;;;7281516;19;20655;-79
2023/12/07 09:42:47;;;;;;;23.93;12.33;;;6.10;99.90;;;;;;7281954;19;20188;-79
2023/12/07 09:45:17;;;;;;;25.23;12.80;;;6.00;99.90;;;;;;7280525;19;20222;-79
2023/12/07 09:47:43;;;;;;;25.53;13.20;;;6.10;99.90;;;;;;7281879;19;20235;-78
2023/12/07 09:50:09;;;;;;;26.23;11.43;;;6.20;99.90;;;;;;7282567;19;20185;-80
2023/12/07 09:52:35;;;;;;;24.77;12.13;;;6.10;99.90;;;;;;7308887;19;20194;-80
2023/12/07 09:55:06;;;;;;;21.27;11.07;;;6.20;99.90;;;;;;7287234;19;20195;-80
2023/12/07 09:57:33;;;;;;;18.70;9.93;;;6.30;99.90;;;;;;7288801;19;20228;-80
2023/12/07 09:59:59;;;;;;;20.50;9.97;;;6.30;99.90;;;;;;7287052;19;20204;-80
2023/12/07 10:02:25;;;;;;;19.50;9.60;;;6.40;99.90;;;;;;7282132;19;20200;-79
2023/12/07 10:05:10;;;;;;;19.73;9.30;;;6.40;99.90;;;;;;7285593;19;20221;-79
2023/12/07 10:07:39;;;;;;;20.43;9.10;;;6.30;99.90;;;;;;7285908;19;20204;-79
2023/12/07 10:10:05;;;;;;;18.13;9.83;;;6.30;99.90;;;;;;7288208;19;20968;-80
2023/12/07 10:12:34;;;;;;;19.53;9.33;;;6.40;99.90;;;;;;7287051;19;20621;-80
2023/12/07 10:15:13;;;;;;;16.80;8.93;;;6.60;99.90;;;;;;7288376;19;20195;-80
2023/12/07 10:18:04;;;;;;;15.63;8.57;;;7.10;99.90;;;;;;7263890;19;20865;-78
2023/12/07 10:20:30;;;;;;;15.87;7.50;;;7.60;99.90;;;;;;7286603;19;21033;-79
2023/12/07 10:23:07;;;;;;;21.60;11.53;;;7.90;99.90;;;;;;7285679;19;20244;-79
2023/12/07 10:25:42;;;;;;;14.70;8.03;;;8.30;99.90;;;;;;7287723;19;20666;-80
2023/12/07 10:28:11;;;;;;;16.47;8.03;;;8.30;99.90;;;;;;7276315;19;20214;-77
2023/12/07 10:30:39;;;;;;;15.23;7.27;;;8.40;99.90;;;;;;7308084;19;20185;-78
2023/12/07 10:33:07;;;;;;;16.87;8.13;;;8.10;99.90;;;;;;7288033;19;20195;-78
2023/12/07 10:35:33;;;;;;;14.40;7.10;;;8.20;99.90;;;;;;7287639;19;20663;-78
2023/12/07 10:37:59;;;;;;;15.70;7.27;;;8.40;99.90;;;;;;7284775;19;20262;-78
2023/12/07 10:40:25;;;;;;;15.90;8.00;;;8.50;99.90;;;;;;7286381;19;20649;-78
2023/12/07 10:42:57;;;;;;;14.70;7.73;;;8.60;99.90;;;;;;7287771;19;20189;-78
2023/12/07 10:45:29;;;;;;;19.17;9.27;;;8.40;99.90;;;;;;7286237;19;20587;-78
2023/12/07 10:48:02;;;;;;;14.63;7.20;;;8.40;99.90;;;;;;7286607;19;20212;-79
2023/12/07 10:50:32;;;;;;;19.80;10.50;;;8.30;99.90;;;;;;7286917;19;20215;-80
2023/12/07 10:53:23;;;;;;;13.93;6.70;;;8.50;99.90;;;;;;7287631;19;20309;-79
2023/12/07 10:55:55;;;;;;;15.70;8.40;;;8.70;99.90;;;;;;7183503;19;2004420;-80
2023/12/07 10:58:25;;;;;;;18.63;9.47;;;8.80;99.90;;;;;;7287004;19;20205;-79
2023/12/07 11:00:52;;;;;;;21.50;12.57;;;8.60;99.90;;;;;;7287174;19;20193;-79
2023/12/07 11:03:20;;;;;;;11.97;6.77;;;8.90;99.90;;;;;;7285331;19;20190;-79
2023/12/07 11:05:47;;;;;;;118.10;47.27;;;9.20;99.90;;;;;;7285741;19;20193;-78
2023/12/07 11:08:38;;;;;;;16.07;8.17;;;9.40;99.90;;;;;;7286409;19;20198;-78
2023/12/07 11:11:16;;;;;;;13.77;6.87;;;9.90;99.90;;;;;;7285661;19;20196;-78
2023/12/07 11:13:53;;;;;;;15.10;6.70;;;10.10;99.90;;;;;;7262789;19;20609;-77
2023/12/07 11:16:29;;;;;;;15.90;9.27;;;9.70;99.90;;;;;;7285558;19;20199;-78
2023/12/07 11:18:59;;;;;;;13.20;6.17;;;9.30;99.90;;;;;;7282138;19;20200;-78
2023/12/07 11:21:25;;;;;;;14.40;6.00;;;8.60;99.90;;;;;;7285068;19;20657;-78
2023/12/07 11:23:53;;;;;;;15.30;6.73;;;8.40;99.90;;;;;;7284058;19;20604;-78
2023/12/07 11:26:24;;;;;;;13.63;6.50;;;8.20;99.90;;;;;;7282452;19;20193;-78
2023/12/07 11:28:50;;;;;;;13.13;6.53;;;8.40;99.90;;;;;;7280566;19;20190;-79
2023/12/07 11:31:16;;;;;;;13.87;6.13;;;8.50;99.90;;;;;;7279609;19;20628;-78
2023/12/07 11:33:43;;;;;;;12.07;6.20;;;8.90;99.90;;;;;;7283672;19;20664;-78
2023/12/07 11:36:10;;;;;;;15.50;5.60;;;9.10;99.90;;;;;;7289905;19;20202;-79
2023/12/07 11:38:37;;;;;;;14.37;6.47;;;9.10;99.90;;;;;;7304724;19;20190;-79
2023/12/07 11:41:03;;;;;;;15.83;7.07;;;8.70;99.90;;;;;;7285757;19;20187;-79
2023/12/07 11:43:35;;;;;;;13.97;6.43;;;8.50;99.90;;;;;;7285160;19;20179;-79
2023/12/07 11:46:01;;;;;;;14.93;6.17;;;8.30;99.90;;;;;;7284419;19;20690;-79
2023/12/07 11:48:27;;;;;;;18.90;8.87;;;8.10;99.90;;;;;;7281004;19;20186;-79
2023/12/07 11:51:13;;;;;;;14.80;6.67;;;8.00;99.90;;;;;;7283186;19;20550;-79
2023/12/07 11:53:39;;;;;;;11.33;5.40;;;7.90;99.90;;;;;;7271255;19;20211;-79
2023/12/07 11:56:07;;;;;;;12.93;5.93;;;7.90;99.90;;;;;;7302464;19;20545;-79
2023/12/07 11:58:34;;;;;;;12.20;5.90;;;7.90;99.90;;;;;;7282668;19;20190;-78
2023/12/07 12:01:00;;;;;;;13.47;5.83;;;7.70;99.90;;;;;;7282447;19;20196;-79
2023/12/07 12:03:28;;;;;;;13.80;5.80;;;7.70;99.90;;;;;;7284695;19;20196;-79
2023/12/07 12:05:56;;;;;;;18.20;7.77;;;7.70;99.90;;;;;;7285332;19;20185;-81
2023/12/07 12:08:22;;;;;;;17.63;8.43;;;7.80;99.90;;;;;;7283934;19;20197;-80
2023/12/07 12:10:53;;;;;;;15.60;7.47;;;7.80;99.90;;;;;;7281861;19;20189;-79
2023/12/07 12:13:19;;;;;;;13.10;5.40;;;7.80;99.90;;;;;;7283140;19;20181;-78
2023/12/07 12:15:48;;;;;;;12.83;6.60;;;7.70;99.90;;;;;;7281461;19;20185;-78
2023/12/07 12:18:18;;;;;;;13.23;6.23;;;7.60;99.90;;;;;;7281050;19;20680;-79
2023/12/07 12:20:47;;;;;;;15.97;7.30;;;7.60;99.90;;;;;;7283525;19;20181;-78
2023/12/07 12:23:13;;;;;;;14.87;8.00;;;7.60;99.90;;;;;;7283414;19;20214;-79
2023/12/07 12:25:39;;;;;;;12.87;6.97;;;7.70;99.90;;;;;;7297812;19;20643;-76
2023/12/07 12:28:06;;;;;;;13.73;6.00;;;7.70;99.90;;;;;;7306020;19;20551;-80
2023/12/07 12:30:33;;;;;;;13.53;6.33;;;7.70;99.90;;;;;;7280100;19;20181;-80
2023/12/07 12:33:06;;;;;;;12.10;6.50;;;7.50;99.90;;;;;;7247814;19;20206;-79
2023/12/07 12:35:35;;;;;;;13.90;6.83;;;7.50;99.90;;;;;;7284100;19;20190;-79
2023/12/07 12:38:01;;;;;;;12.87;6.17;;;7.50;99.90;;;;;;7282093;19;20198;-80